sensor_id;sensor_type;location;lat;lon;timestamp;pressure;altitude;pressure_sealevel;temperature;humidity
30636;BME280;17400;52.392;9.750;2022-08-21T00:00:53;101030.13;;;21.02;75.77
30636;BME280;17400;52.392;9.750;2022-08-21T00:03:21;101024.28;;;20.98;75.74
30636;BME280;17400;52.392;9.750;2022-08-21T00:05:50;101019.31;;;20.95;76.38
30636;BME280;17400;52.392;9.750;2022-08-21T00:08:19;101021.47;;;20.93;76.23
30636;BME280;17400;52.392;9.750;2022-08-21T00:10:47;101023.16;;;20.94;76.51
30636;BME280;17400;52.392;9.750;2022-08-21T00:13:17;101017.34;;;20.90;76.17
30636;BME280;17400;52.392;9.750;2022-08-21T00:15:48;101013.50;;;20.91;76.67
30636;BME280;17400;52.392;9.750;2022-08-21T00:18:17;101012.34;;;20.87;76.98
30636;BME280;17400;52.392;9.750;2022-08-21T00:20:46;101004.34;;;20.86;77.17
30636;BME280;17400;52.392;9.750;2022-08-21T00:23:14;101006.78;;;20.82;77.61
30636;BME280;17400;52.392;9.750;2022-08-21T00:25:43;101014.22;;;20.82;77.67
30636;BME280;17400;52.392;9.750;2022-08-21T00:28:12;101011.47;;;20.82;78.26
30636;BME280;17400;52.392;9.750;2022-08-21T00:30:41;101019.94;;;20.75;79.04
30636;BME280;17400;52.392;9.750;2022-08-21T00:33:12;101024.09;;;20.77;78.24
30636;BME280;17400;52.392;9.750;2022-08-21T00:35:41;101024.59;;;20.74;79.09
30636;BME280;17400;52.392;9.750;2022-08-21T00:38:09;101024.03;;;20.72;79.16
30636;BME280;17400;52.392;9.750;2022-08-21T00:40:40;101021.53;;;20.71;79.42
30636;BME280;17400;52.392;9.750;2022-08-21T00:43:11;101028.34;;;20.68;80.41
30636;BME280;17400;52.392;9.750;2022-08-21T00:45:39;101024.47;;;20.64;80.71
30636;BME280;17400;52.392;9.750;2022-08-21T00:48:07;101029.63;;;20.60;81.17
30636;BME280;17400;52.392;9.750;2022-08-21T00:50:40;101037.09;;;20.65;80.08
30636;BME280;17400;52.392;9.750;2022-08-21T00:53:10;101027.75;;;20.66;79.61
30636;BME280;17400;52.392;9.750;2022-08-21T00:55:39;101032.13;;;20.62;79.54
30636;BME280;17400;52.392;9.750;2022-08-21T00:58:09;101038.16;;;20.59;79.93
30636;BME280;17400;52.392;9.750;2022-08-21T05:01:45;100997.03;;;19.18;100.00
30636;BME280;17400;52.392;9.750;2022-08-21T05:04:16;100998.19;;;19.22;99.90
30636;BME280;17400;52.392;9.750;2022-08-21T05:06:46;100997.69;;;19.25;99.21
30636;BME280;17400;52.392;9.750;2022-08-21T05:09:17;100998.88;;;19.29;99.15
30636;BME280;17400;52.392;9.750;2022-08-21T05:11:46;101001.13;;;19.32;98.55
30636;BME280;17400;52.392;9.750;2022-08-21T05:14:15;101007.19;;;19.34;97.92
30636;BME280;17400;52.392;9.750;2022-08-21T05:16:43;100997.78;;;19.30;98.60
30636;BME280;17400;52.392;9.750;2022-08-21T05:19:12;100991.88;;;19.21;98.79
30636;BME280;17400;52.392;9.750;2022-08-21T05:21:43;100996.03;;;19.24;98.74
30636;BME280;17400;52.392;9.750;2022-08-21T05:24:11;101001.03;;;19.27;98.48
30636;BME280;17400;52.392;9.750;2022-08-21T05:26:39;101003.88;;;19.32;98.05
30636;BME280;17400;52.392;9.750;2022-08-21T05:29:13;101005.63;;;19.38;97.99
30636;BME280;17400;52.392;9.750;2022-08-21T05:31:42;101004.03;;;19.42;98.08
30636;BME280;17400;52.392;9.750;2022-08-21T05:34:09;101003.19;;;19.42;98.95
30636;BME280;17400;52.392;9.750;2022-08-21T05:36:43;101013.50;;;19.35;100.00
30636;BME280;17400;52.392;9.750;2022-08-21T05:39:11;101021.81;;;19.23;99.54
30636;BME280;17400;52.392;9.750;2022-08-21T05:41:38;101008.66;;;19.25;99.22
30636;BME280;17400;52.392;9.750;2022-08-21T05:44:06;101002.44;;;19.29;98.67
30636;BME280;17400;52.392;9.750;2022-08-21T05:46:36;101014.09;;;19.37;97.67
30636;BME280;17400;52.392;9.750;2022-08-21T05:49:05;101017.75;;;19.42;97.59
30636;BME280;17400;52.392;9.750;2022-08-21T05:51:33;101022.16;;;19.43;97.15
30636;BME280;17400;52.392;9.750;2022-08-21T05:54:03;101015.03;;;19.42;96.94
30636;BME280;17400;52.392;9.750;2022-08-21T05:56:30;101018.34;;;19.44;96.76
30636;BME280;17400;52.392;9.750;2022-08-21T05:58:58;101011.75;;;19.45;96.84
30636;BME280;17400;52.392;9.750;2022-08-21T06:01:25;101020.16;;;19.39;97.23
30636;BME280;17400;52.392;9.750;2022-08-21T06:03:57;101036.81;;;19.32;97.79
30636;BME280;17400;52.392;9.750;2022-08-21T06:06:27;101025.91;;;19.37;97.85
30636;BME280;17400;52.392;9.750;2022-08-21T06:08:54;101027.25;;;19.35;97.91
30636;BME280;17400;52.392;9.750;2022-08-21T06:11:23;101026.91;;;19.31;98.40
30636;BME280;17400;52.392;9.750;2022-08-21T06:13:54;101032.22;;;19.38;97.86
30636;BME280;17400;52.392;9.750;2022-08-21T06:16:22;101027.63;;;19.43;97.00
30636;BME280;17400;52.392;9.750;2022-08-21T06:18:50;101040.63;;;19.48;96.29
30636;BME280;17400;52.392;9.750;2022-08-21T06:21:18;101037.06;;;19.47;96.01
30636;BME280;17400;52.392;9.750;2022-08-21T06:23:46;101035.50;;;19.52;95.51
30636;BME280;17400;52.392;9.750;2022-08-21T06:26:14;101039.16;;;19.57;95.54
30636;BME280;17400;52.392;9.750;2022-08-21T06:28:43;101034.81;;;19.61;95.06
30636;BME280;17400;52.392;9.750;2022-08-21T06:31:13;101038.41;;;19.62;95.15
30636;BME280;17400;52.392;9.750;2022-08-21T06:33:41;101037.31;;;19.63;94.84
30636;BME280;17400;52.392;9.750;2022-08-21T06:36:09;101037.97;;;19.70;94.57
30636;BME280;17400;52.392;9.750;2022-08-21T06:38:38;101040.56;;;19.77;93.70
30636;BME280;17400;52.392;9.750;2022-08-21T06:41:06;101038.63;;;19.77;93.36
30636;BME280;17400;52.392;9.750;2022-08-21T06:43:35;101035.31;;;19.92;92.24
30636;BME280;17400;52.392;9.750;2022-08-21T06:46:06;101042.13;;;20.07;91.37
30636;BME280;17400;52.392;9.750;2022-08-21T06:48:34;101033.69;;;20.13;90.55
30636;BME280;17400;52.392;9.750;2022-08-21T06:51:03;101035.09;;;20.16;89.58
30636;BME280;17400;52.392;9.750;2022-08-21T06:53:30;101041.13;;;20.13;89.93
30636;BME280;17400;52.392;9.750;2022-08-21T06:55:58;101037.53;;;20.12;89.65
30636;BME280;17400;52.392;9.750;2022-08-21T06:58:28;101029.41;;;20.23;89.76
30636;BME280;17400;52.392;9.750;2022-08-21T07:00:56;101027.88;;;20.32;89.01
30636;BME280;17400;52.392;9.750;2022-08-21T07:03:31;101026.63;;;20.18;89.72
30636;BME280;17400;52.392;9.750;2022-08-21T07:05:59;101026.00;;;20.33;88.98
30636;BME280;17400;52.392;9.750;2022-08-21T07:08:27;101026.06;;;20.38;88.53
30636;BME280;17400;52.392;9.750;2022-08-21T07:10:57;101020.03;;;20.41;87.94
30636;BME280;17400;52.392;9.750;2022-08-21T07:13:26;101019.34;;;20.51;87.02
30636;BME280;17400;52.392;9.750;2022-08-21T07:15:54;101007.38;;;20.62;86.79
30636;BME280;17400;52.392;9.750;2022-08-21T07:18:30;101021.28;;;20.72;86.48
30636;BME280;17400;52.392;9.750;2022-08-21T07:21:00;101016.84;;;20.71;85.01
30636;BME280;17400;52.392;9.750;2022-08-21T07:23:30;101014.75;;;20.78;84.82
30636;BME280;17400;52.392;9.750;2022-08-21T07:25:59;101009.09;;;20.90;83.91
30636;BME280;17400;52.392;9.750;2022-08-21T07:28:28;101007.56;;;21.05;83.19
30636;BME280;17400;52.392;9.750;2022-08-21T07:30:58;101014.25;;;21.09;81.30
30636;BME280;17400;52.392;9.750;2022-08-21T07:33:28;101009.66;;;21.20;80.94
30636;BME280;17400;52.392;9.750;2022-08-21T07:35:58;101009.06;;;21.18;77.84
30636;BME280;17400;52.392;9.750;2022-08-21T07:38:26;101003.66;;;21.28;78.73
30636;BME280;17400;52.392;9.750;2022-08-21T07:40:55;100993.28;;;21.40;78.60
30636;BME280;17400;52.392;9.750;2022-08-21T07:43:25;101007.41;;;21.49;76.76
30636;BME280;17400;52.392;9.750;2022-08-21T07:45:53;101002.84;;;21.60;75.71
30636;BME280;17400;52.392;9.750;2022-08-21T07:48:22;101000.13;;;21.65;74.37
30636;BME280;17400;52.392;9.750;2022-08-21T07:50:50;100995.22;;;21.72;73.65
30636;BME280;17400;52.392;9.750;2022-08-21T07:53:19;100992.22;;;21.74;71.46
30636;BME280;17400;52.392;9.750;2022-08-21T07:55:47;100981.22;;;21.84;71.89
30636;BME280;17400;52.392;9.750;2022-08-21T07:58:15;100988.38;;;21.80;71.39
30636;BME280;17400;52.392;9.750;2022-08-21T08:00:43;100995.00;;;21.84;73.06
30636;BME280;17400;52.392;9.750;2022-08-21T08:03:11;100991.81;;;21.98;72.69
30636;BME280;17400;52.392;9.750;2022-08-21T08:05:40;100983.31;;;22.09;72.47
30636;BME280;17400;52.392;9.750;2022-08-21T08:08:08;100990.00;;;22.19;72.06
30636;BME280;17400;52.392;9.750;2022-08-21T08:10:38;100987.78;;;22.26;72.03
30636;BME280;17400;52.392;9.750;2022-08-21T08:13:05;100985.03;;;22.26;70.16
30636;BME280;17400;52.392;9.750;2022-08-21T08:15:36;100975.69;;;22.27;67.93
30636;BME280;17400;52.392;9.750;2022-08-21T08:18:04;100974.84;;;22.32;66.19
30636;BME280;17400;52.392;9.750;2022-08-21T08:20:32;100983.47;;;22.40;66.85
30636;BME280;17400;52.392;9.750;2022-08-21T08:22:59;100981.84;;;22.44;65.03
30636;BME280;17400;52.392;9.750;2022-08-21T08:25:28;100977.72;;;22.47;65.01
30636;BME280;17400;52.392;9.750;2022-08-21T08:28:04;100977.72;;;22.52;64.17
30636;BME280;17400;52.392;9.750;2022-08-21T08:30:43;100982.16;;;22.53;64.97
30636;BME280;17400;52.392;9.750;2022-08-21T08:33:11;100976.34;;;22.55;62.74
30636;BME280;17400;52.392;9.750;2022-08-21T08:35:45;100978.00;;;22.51;62.88
30636;BME280;17400;52.392;9.750;2022-08-21T08:38:14;100976.91;;;22.57;63.02
30636;BME280;17400;52.392;9.750;2022-08-21T08:40:52;100979.69;;;22.67;62.81
30636;BME280;17400;52.392;9.750;2022-08-21T08:43:22;100986.06;;;22.68;60.84
30636;BME280;17400;52.392;9.750;2022-08-21T08:45:51;100981.03;;;22.54;60.55
30636;BME280;17400;52.392;9.750;2022-08-21T08:48:34;100973.88;;;22.63;59.96
30636;BME280;17400;52.392;9.750;2022-08-21T08:51:06;100979.69;;;22.67;60.10
30636;BME280;17400;52.392;9.750;2022-08-21T08:53:45;100970.63;;;22.77;61.32
30636;BME280;17400;52.392;9.750;2022-08-21T08:56:18;100975.03;;;22.83;58.94
30636;BME280;17400;52.392;9.750;2022-08-21T08:58:51;100969.81;;;22.87;59.15
30636;BME280;17400;52.392;9.750;2022-08-21T09:01:20;100964.84;;;22.89;58.09
30636;BME280;17400;52.392;9.750;2022-08-21T09:03:48;100958.50;;;22.93;57.95
30636;BME280;17400;52.392;9.750;2022-08-21T09:06:26;100950.50;;;23.02;58.84
30636;BME280;17400;52.392;9.750;2022-08-21T09:09:04;100964.84;;;22.99;57.30
30636;BME280;17400;52.392;9.750;2022-08-21T09:11:45;100959.88;;;22.96;58.31
30636;BME280;17400;52.392;9.750;2022-08-21T09:14:25;100962.34;;;22.92;57.86
30636;BME280;17400;52.392;9.750;2022-08-21T09:16:59;100959.06;;;22.90;59.52
30636;BME280;17400;52.392;9.750;2022-08-21T09:19:42;100960.97;;;22.95;62.81
30636;BME280;17400;52.392;9.750;2022-08-21T09:22:20;100962.09;;;23.04;61.03
30636;BME280;17400;52.392;9.750;2022-08-21T09:25:01;100954.66;;;23.10;60.44
30636;BME280;17400;52.392;9.750;2022-08-21T09:27:31;100948.84;;;23.11;58.43
30636;BME280;17400;52.392;9.750;2022-08-21T09:30:00;100951.66;;;23.17;58.15
30636;BME280;17400;52.392;9.750;2022-08-21T09:32:32;100950.53;;;23.18;57.88
30636;BME280;17400;52.392;9.750;2022-08-21T09:35:06;100945.56;;;23.25;57.27
30636;BME280;17400;52.392;9.750;2022-08-21T09:37:46;100945.00;;;23.33;60.75
30636;BME280;17400;52.392;9.750;2022-08-21T09:40:20;100948.03;;;23.32;57.92
30636;BME280;17400;52.392;9.750;2022-08-21T09:42:55;100959.09;;;23.32;59.28
30636;BME280;17400;52.392;9.750;2022-08-21T09:45:24;100954.94;;;23.34;59.10
30636;BME280;17400;52.392;9.750;2022-08-21T09:48:09;100950.81;;;23.37;58.28
30636;BME280;17400;52.392;9.750;2022-08-21T09:50:37;100947.47;;;23.45;57.65
30636;BME280;17400;52.392;9.750;2022-08-21T09:53:15;100945.56;;;23.40;56.58
30636;BME280;17400;52.392;9.750;2022-08-21T09:55:48;100960.47;;;23.39;57.63
30636;BME280;17400;52.392;9.750;2022-08-21T09:58:36;100948.03;;;23.37;55.93
30636;BME280;17400;52.392;9.750;2022-08-21T10:01:06;100953.28;;;23.43;56.93
30636;BME280;17400;52.392;9.750;2022-08-21T10:03:39;100940.56;;;23.48;55.93
30636;BME280;17400;52.392;9.750;2022-08-21T10:06:09;100939.47;;;23.54;56.13
30636;BME280;17400;52.392;9.750;2022-08-21T10:08:40;100939.72;;;23.57;55.54
30636;BME280;17400;52.392;9.750;2022-08-21T10:11:10;100932.56;;;23.56;55.37
30636;BME280;17400;52.392;9.750;2022-08-21T10:13:47;100942.75;;;23.56;55.64
30636;BME280;17400;52.392;9.750;2022-08-21T10:16:28;100938.91;;;23.52;55.05
30636;BME280;17400;52.392;9.750;2022-08-21T10:19:17;100939.19;;;23.50;54.48
30636;BME280;17400;52.392;9.750;2022-08-21T10:22:00;100922.31;;;23.52;53.85
30636;BME280;17400;52.392;9.750;2022-08-21T10:24:32;100930.03;;;23.55;53.76
30636;BME280;17400;52.392;9.750;2022-08-21T10:27:16;100928.41;;;23.49;53.04
30636;BME280;17400;52.392;9.750;2022-08-21T10:29:53;100920.94;;;23.54;53.11
30636;BME280;17400;52.392;9.750;2022-08-21T10:32:35;100928.94;;;23.61;53.49
30636;BME280;17400;52.392;9.750;2022-08-21T10:35:12;100921.19;;;23.63;51.71
30636;BME280;17400;52.392;9.750;2022-08-21T10:37:52;100926.75;;;23.42;52.57
30636;BME280;17400;52.392;9.750;2022-08-21T10:40:26;100919.03;;;23.34;52.97
30636;BME280;17400;52.392;9.750;2022-08-21T10:43:07;100918.19;;;23.39;52.71
30636;BME280;17400;52.392;9.750;2022-08-21T10:45:49;100924.28;;;23.46;51.39
30636;BME280;17400;52.392;9.750;2022-08-21T10:48:24;100923.69;;;23.54;51.78
30636;BME280;17400;52.392;9.750;2022-08-21T10:50:59;100920.94;;;23.54;51.34
30636;BME280;17400;52.392;9.750;2022-08-21T10:53:39;100917.88;;;23.61;50.95
30636;BME280;17400;52.392;9.750;2022-08-21T10:56:15;100915.66;;;23.68;51.93
30636;BME280;17400;52.392;9.750;2022-08-21T10:58:49;100913.72;;;23.74;51.34
30636;BME280;17400;52.392;9.750;2022-08-21T11:01:26;100907.88;;;23.81;50.24
30636;BME280;17400;52.392;9.750;2022-08-21T11:04:10;100900.97;;;23.83;50.47
30636;BME280;17400;52.392;9.750;2022-08-21T11:06:47;100904.56;;;23.78;48.24
30636;BME280;17400;52.392;9.750;2022-08-21T11:09:20;100906.78;;;23.82;47.18
30636;BME280;17400;52.392;9.750;2022-08-21T11:11:52;100909.53;;;23.87;47.87
30636;BME280;17400;52.392;9.750;2022-08-21T11:14:41;100914.22;;;23.97;49.70
30636;BME280;17400;52.392;9.750;2022-08-21T11:17:18;100907.03;;;23.95;48.76
30636;BME280;17400;52.392;9.750;2022-08-21T11:20:03;100908.94;;;24.00;48.81
30636;BME280;17400;52.392;9.750;2022-08-21T11:22:38;100922.75;;;24.05;47.33
30636;BME280;17400;52.392;9.750;2022-08-21T11:25:12;100916.06;;;24.11;47.97
30636;BME280;17400;52.392;9.750;2022-08-21T11:27:45;100907.75;;;24.17;46.38
30636;BME280;17400;52.392;9.750;2022-08-21T11:30:14;100898.34;;;24.23;45.74
30636;BME280;17400;52.392;9.750;2022-08-21T11:32:54;100905.75;;;24.27;46.05
30636;BME280;17400;52.392;9.750;2022-08-21T11:35:32;100906.81;;;24.37;46.03
30636;BME280;17400;52.392;9.750;2022-08-21T11:38:15;100909.56;;;24.42;45.69
30636;BME280;17400;52.392;9.750;2022-08-21T11:41:02;100902.56;;;24.55;45.93
30636;BME280;17400;52.392;9.750;2022-08-21T11:43:38;100897.63;;;24.52;45.23
30636;BME280;17400;52.392;9.750;2022-08-21T11:46:23;100900.19;;;24.33;45.67
30636;BME280;17400;52.392;9.750;2022-08-21T11:49:00;100914.91;;;24.28;46.43
30636;BME280;17400;52.392;9.750;2022-08-21T11:51:37;100907.22;;;24.15;47.22
30636;BME280;17400;52.392;9.750;2022-08-21T11:54:12;100909.47;;;24.07;46.90
30636;BME280;17400;52.392;9.750;2022-08-21T11:56:45;100908.84;;;24.21;47.02
30636;BME280;17400;52.392;9.750;2022-08-21T11:59:18;100903.72;;;24.43;46.12
30636;BME280;17400;52.392;9.750;2022-08-21T12:01:50;100905.25;;;24.70;46.17
30636;BME280;17400;52.392;9.750;2022-08-21T12:04:24;100904.19;;;25.01;44.44
30636;BME280;17400;52.392;9.750;2022-08-21T12:06:53;100906.28;;;24.85;43.72
30636;BME280;17400;52.392;9.750;2022-08-21T12:09:32;100901.84;;;24.84;44.86
30636;BME280;17400;52.392;9.750;2022-08-21T12:12:04;100903.53;;;24.80;45.72
30636;BME280;17400;52.392;9.750;2022-08-21T12:14:38;100903.06;;;24.62;44.74
30636;BME280;17400;52.392;9.750;2022-08-21T12:17:08;100902.31;;;24.91;44.03
30636;BME280;17400;52.392;9.750;2022-08-21T12:19:57;100899.00;;;25.23;42.48
30636;BME280;17400;52.392;9.750;2022-08-21T12:22:38;100898.66;;;25.30;42.05
30636;BME280;17400;52.392;9.750;2022-08-21T12:25:09;100892.47;;;25.43;41.76
30636;BME280;17400;52.392;9.750;2022-08-21T12:27:45;100893.88;;;25.65;40.76
30636;BME280;17400;52.392;9.750;2022-08-21T12:30:23;100894.75;;;25.85;41.24
30636;BME280;17400;52.392;9.750;2022-08-21T12:33:02;100895.47;;;25.95;40.85
30636;BME280;17400;52.392;9.750;2022-08-21T12:35:40;100900.84;;;25.87;41.65
30636;BME280;17400;52.392;9.750;2022-08-21T12:38:15;100901.47;;;26.27;39.82
30636;BME280;17400;52.392;9.750;2022-08-21T12:40:47;100883.88;;;26.37;39.28
30636;BME280;17400;52.392;9.750;2022-08-21T12:43:20;100883.47;;;26.63;39.95
30636;BME280;17400;52.392;9.750;2022-08-21T12:45:50;100878.22;;;26.80;39.71
30636;BME280;17400;52.392;9.750;2022-08-21T12:48:22;100880.38;;;26.64;39.53
30636;BME280;17400;52.392;9.750;2022-08-21T12:50:54;100877.69;;;26.59;39.86
30636;BME280;17400;52.392;9.750;2022-08-21T12:53:28;100881.69;;;26.72;38.93
30636;BME280;17400;52.392;9.750;2022-08-21T12:56:01;100869.94;;;26.94;38.40
30636;BME280;17400;52.392;9.750;2022-08-21T12:58:31;100864.09;;;27.09;38.13
30636;BME280;17400;52.392;9.750;2022-08-21T13:01:03;100863.50;;;27.26;39.08
30636;BME280;17400;52.392;9.750;2022-08-21T13:03:35;100867.91;;;27.47;38.16
30636;BME280;17400;52.392;9.750;2022-08-21T13:06:04;100867.59;;;27.48;37.83
30636;BME280;17400;52.392;9.750;2022-08-21T13:08:35;100866.28;;;27.13;37.83
30636;BME280;17400;52.392;9.750;2022-08-21T13:11:10;100863.81;;;27.25;38.47
30636;BME280;17400;52.392;9.750;2022-08-21T13:13:41;100872.06;;;27.30;38.19
30636;BME280;17400;52.392;9.750;2022-08-21T13:16:21;100865.41;;;26.98;38.58
30636;BME280;17400;52.392;9.750;2022-08-21T13:18:53;100859.75;;;26.70;38.37
30636;BME280;17400;52.392;9.750;2022-08-21T13:21:27;100861.44;;;26.71;38.80
30636;BME280;17400;52.392;9.750;2022-08-21T13:24:10;100867.94;;;27.14;37.87
30636;BME280;17400;52.392;9.750;2022-08-21T13:27:00;100852.84;;;27.48;37.17
30636;BME280;17400;52.392;9.750;2022-08-21T13:29:31;100852.44;;;27.68;37.10
30636;BME280;17400;52.392;9.750;2022-08-21T13:32:05;100857.16;;;27.82;36.01
30636;BME280;17400;52.392;9.750;2022-08-21T13:34:35;100851.59;;;27.96;36.50
30636;BME280;17400;52.392;9.750;2022-08-21T13:37:07;100857.97;;;28.10;35.42
30636;BME280;17400;52.392;9.750;2022-08-21T13:39:37;100865.50;;;27.96;34.88
30636;BME280;17400;52.392;9.750;2022-08-21T13:42:12;100861.06;;;28.08;35.73
30636;BME280;17400;52.392;9.750;2022-08-21T13:44:42;100861.66;;;28.19;34.85
30636;BME280;17400;52.392;9.750;2022-08-21T13:47:11;100863.28;;;28.34;35.10
30636;BME280;17400;52.392;9.750;2022-08-21T13:49:42;100865.22;;;28.34;35.68
30636;BME280;17400;52.392;9.750;2022-08-21T13:52:15;100850.88;;;28.40;35.19
30636;BME280;17400;52.392;9.750;2022-08-21T13:54:52;100850.75;;;28.46;34.78
30636;BME280;17400;52.392;9.750;2022-08-21T13:57:25;100860.06;;;28.41;35.05
30636;BME280;17400;52.392;9.750;2022-08-21T14:00:09;100855.28;;;28.55;34.73
30636;BME280;17400;52.392;9.750;2022-08-21T14:02:39;100851.09;;;28.67;33.83
30636;BME280;17400;52.392;9.750;2022-08-21T14:05:14;100860.88;;;28.64;33.83
30636;BME280;17400;52.392;9.750;2022-08-21T14:07:44;100856.22;;;28.73;34.73
30636;BME280;17400;52.392;9.750;2022-08-21T14:10:18;100851.16;;;28.98;34.05
30636;BME280;17400;52.392;9.750;2022-08-21T14:12:49;100848.91;;;29.09;34.29
30636;BME280;17400;52.392;9.750;2022-08-21T14:15:23;100856.31;;;28.82;34.53
30636;BME280;17400;52.392;9.750;2022-08-21T14:17:52;100848.06;;;28.77;33.91
30636;BME280;17400;52.392;9.750;2022-08-21T14:20:28;100850.72;;;28.82;33.90
30636;BME280;17400;52.392;9.750;2022-08-21T14:22:56;100847.88;;;28.96;34.47
30636;BME280;17400;52.392;9.750;2022-08-21T14:25:31;100842.25;;;28.87;34.46
30636;BME280;17400;52.392;9.750;2022-08-21T14:28:19;100851.09;;;28.67;34.39
30636;BME280;17400;52.392;9.750;2022-08-21T14:30:55;100854.75;;;28.67;34.57
30636;BME280;17400;52.392;9.750;2022-08-21T14:33:26;100849.16;;;28.67;33.57
30636;BME280;17400;52.392;9.750;2022-08-21T14:35:55;100854.34;;;28.83;33.43
30636;BME280;17400;52.392;9.750;2022-08-21T14:38:26;100854.75;;;28.99;32.89
30636;BME280;17400;52.392;9.750;2022-08-21T14:40:59;100855.34;;;29.09;33.56
30636;BME280;17400;52.392;9.750;2022-08-21T14:43:28;100852.16;;;29.02;33.01
30636;BME280;17400;52.392;9.750;2022-08-21T14:45:56;100847.56;;;28.98;32.49
30636;BME280;17400;52.392;9.750;2022-08-21T14:48:24;100846.91;;;29.01;33.12
30636;BME280;17400;52.392;9.750;2022-08-21T14:50:51;100844.78;;;28.98;32.50
30636;BME280;17400;52.392;9.750;2022-08-21T14:53:25;100846.47;;;29.07;33.38
30636;BME280;17400;52.392;9.750;2022-08-21T14:55:53;100846.59;;;29.02;34.27
30636;BME280;17400;52.392;9.750;2022-08-21T14:58:37;100841.56;;;28.82;34.20
30636;BME280;17400;52.392;9.750;2022-08-21T15:01:06;100839.16;;;28.66;34.63
30636;BME280;17400;52.392;9.750;2022-08-21T15:03:35;100843.84;;;28.43;35.49
30636;BME280;17400;52.392;9.750;2022-08-21T15:06:04;100844.34;;;28.22;35.33
30636;BME280;17400;52.392;9.750;2022-08-21T15:08:35;100843.13;;;28.01;35.86
30636;BME280;17400;52.392;9.750;2022-08-21T15:11:05;100837.28;;;27.88;35.97
30636;BME280;17400;52.392;9.750;2022-08-21T15:13:41;100849.34;;;27.84;36.18
30636;BME280;17400;52.392;9.750;2022-08-21T15:16:11;100846.78;;;27.73;36.30
30636;BME280;17400;52.392;9.750;2022-08-21T15:18:40;100851.91;;;27.66;36.34
30636;BME280;17400;52.392;9.750;2022-08-21T15:21:09;100851.44;;;27.64;36.66
30636;BME280;17400;52.392;9.750;2022-08-21T15:23:36;100848.22;;;27.57;36.96
30636;BME280;17400;52.392;9.750;2022-08-21T15:26:05;100851.94;;;27.52;36.71
30636;BME280;17400;52.392;9.750;2022-08-21T15:28:34;100848.22;;;27.43;36.52
30636;BME280;17400;52.392;9.750;2022-08-21T15:31:05;100849.72;;;27.35;36.83
30636;BME280;17400;52.392;9.750;2022-08-21T15:33:33;100844.53;;;27.15;36.99
30636;BME280;17400;52.392;9.750;2022-08-21T15:36:01;100850.72;;;27.12;37.36
30636;BME280;17400;52.392;9.750;2022-08-21T15:38:29;100852.69;;;27.11;37.10
30636;BME280;17400;52.392;9.750;2022-08-21T15:40:57;100848.47;;;27.14;37.12
30636;BME280;17400;52.392;9.750;2022-08-21T15:43:28;100842.16;;;27.08;37.24
30636;BME280;17400;52.392;9.750;2022-08-21T15:45:58;100848.13;;;27.01;37.48
30636;BME280;17400;52.392;9.750;2022-08-21T15:48:28;100847.09;;;26.97;37.76
30636;BME280;17400;52.392;9.750;2022-08-21T15:50:57;100837.19;;;26.91;37.21
30636;BME280;17400;52.392;9.750;2022-08-21T15:53:25;100848.41;;;26.86;37.74
30636;BME280;17400;52.392;9.750;2022-08-21T15:55:53;100842.31;;;26.84;37.72
30636;BME280;17400;52.392;9.750;2022-08-21T15:58:21;100848.88;;;26.74;38.07
30636;BME280;17400;52.392;9.750;2022-08-21T16:00:49;100845.84;;;26.70;37.78
30636;BME280;17400;52.392;9.750;2022-08-21T16:03:17;100856.50;;;26.63;38.39
30636;BME280;17400;52.392;9.750;2022-08-21T16:05:49;100845.88;;;26.51;38.43
30636;BME280;17400;52.392;9.750;2022-08-21T16:08:19;100852.25;;;26.52;38.72
30636;BME280;17400;52.392;9.750;2022-08-21T16:10:47;100848.66;;;26.51;38.59
30636;BME280;17400;52.392;9.750;2022-08-21T16:13:19;100845.59;;;26.53;37.97
30636;BME280;17400;52.392;9.750;2022-08-21T16:15:51;100847.31;;;26.49;38.44
30636;BME280;17400;52.392;9.750;2022-08-21T16:18:21;100856.16;;;26.51;38.63
30636;BME280;17400;52.392;9.750;2022-08-21T16:20:51;100847.59;;;26.47;39.24
30636;BME280;17400;52.392;9.750;2022-08-21T16:23:19;100845.44;;;26.44;38.82
30636;BME280;17400;52.392;9.750;2022-08-21T16:25:48;100842.44;;;26.40;39.12
30636;BME280;17400;52.392;9.750;2022-08-21T16:28:17;100837.19;;;26.39;38.76
30636;BME280;17400;52.392;9.750;2022-08-21T16:30:48;100834.78;;;26.32;39.67
30636;BME280;17400;52.392;9.750;2022-08-21T16:33:31;100837.56;;;26.32;39.39
30636;BME280;17400;52.392;9.750;2022-08-21T16:36:05;100827.06;;;26.29;39.69
30636;BME280;17400;52.392;9.750;2022-08-21T16:38:34;100843.72;;;26.29;39.74
30636;BME280;17400;52.392;9.750;2022-08-21T16:41:04;100839.53;;;26.32;39.64
30636;BME280;17400;52.392;9.750;2022-08-21T16:43:34;100834.78;;;26.32;39.63
30636;BME280;17400;52.392;9.750;2022-08-21T16:46:02;100838.75;;;26.26;39.14
30636;BME280;17400;52.392;9.750;2022-08-21T16:48:29;100851.28;;;26.23;39.94
30636;BME280;17400;52.392;9.750;2022-08-21T16:50:57;100830.88;;;26.14;39.74
30636;BME280;17400;52.392;9.750;2022-08-21T16:53:26;100835.91;;;26.12;40.11
30636;BME280;17400;52.392;9.750;2022-08-21T16:55:54;100838.16;;;26.10;40.32
30636;BME280;17400;52.392;9.750;2022-08-21T16:58:25;100838.69;;;26.12;40.12
30636;BME280;17400;52.392;9.750;2022-08-21T17:00:53;100836.81;;;26.07;39.83
30636;BME280;17400;52.392;9.750;2022-08-21T17:03:27;100837.44;;;25.99;40.11
30636;BME280;17400;52.392;9.750;2022-08-21T17:05:56;100836.41;;;25.95;40.07
30636;BME280;17400;52.392;9.750;2022-08-21T17:08:23;100835.28;;;25.96;40.28
30636;BME280;17400;52.392;9.750;2022-08-21T17:10:53;100831.16;;;25.93;40.38
30636;BME280;17400;52.392;9.750;2022-08-21T17:13:21;100835.34;;;25.91;40.48
30636;BME280;17400;52.392;9.750;2022-08-21T17:15:50;100838.13;;;25.91;41.06